createdAt,value
2023-04-14T00:00:58.757Z,11.74
2023-04-14T00:03:26.318Z,11.64
2023-04-14T00:05:53.945Z,11.66
2023-04-14T00:08:21.223Z,11.57
2023-04-14T00:10:48.819Z,11.68
2023-04-14T00:13:16.298Z,11.80
2023-04-14T00:15:43.867Z,11.75
2023-04-14T00:18:11.221Z,11.57
2023-04-14T00:20:38.857Z,11.69
2023-04-14T00:23:06.253Z,11.74
2023-04-14T00:25:33.889Z,11.73
2023-04-14T00:28:01.357Z,11.83
2023-04-14T00:30:29.183Z,11.81
2023-04-14T00:32:56.754Z,11.80
2023-04-14T00:35:24.670Z,11.88
2023-04-14T00:37:52.045Z,11.78
2023-04-14T00:40:19.743Z,11.81
2023-04-14T00:42:47.742Z,11.53
2023-04-14T00:45:15.548Z,11.75
2023-04-14T00:47:48.013Z,11.81
2023-04-14T00:50:18.029Z,11.77
2023-04-14T00:52:49.250Z,11.40
2023-04-14T00:55:20.022Z,11.49
2023-04-14T00:57:48.103Z,11.61
2023-04-14T01:00:16.297Z,11.01
2023-04-14T01:02:43.775Z,11.13
2023-04-14T01:05:12.435Z,10.60
2023-04-14T01:07:40.841Z,10.81
2023-04-14T01:10:11.222Z,11.03
2023-04-14T01:12:56.918Z,10.82
2023-04-14T01:15:34.362Z,11.07
2023-04-14T01:18:31.017Z,11.28
2023-04-14T01:21:16.947Z,11.36
2023-04-14T01:24:06.581Z,11.31
2023-04-14T01:26:34.620Z,11.49
2023-04-14T01:29:34.269Z,11.37
2023-04-14T01:32:10.709Z,11.41
2023-04-14T01:34:46.171Z,11.35
2023-04-14T01:37:36.490Z,11.53
2023-04-14T01:40:11.434Z,11.62
2023-04-14T01:42:47.474Z,11.51
2023-04-14T01:45:23.070Z,11.54
2023-04-14T01:47:52.453Z,11.18
2023-04-14T01:50:22.383Z,11.31
2023-04-14T01:52:54.350Z,11.24
2023-04-14T01:55:26.557Z,11.42
2023-04-14T01:57:58.160Z,11.26
2023-04-14T02:00:26.583Z,11.33
2023-04-14T02:02:55.089Z,11.42
2023-04-14T02:05:23.938Z,11.38
2023-04-14T02:07:53.270Z,11.35
2023-04-14T02:10:21.840Z,11.32
2023-04-14T02:12:52.779Z,11.24
2023-04-14T02:15:22.508Z,11.31
2023-04-14T02:17:52.754Z,11.27
2023-04-14T02:20:21.973Z,11.09
2023-04-14T02:22:49.332Z,11.39
2023-04-14T02:25:17.120Z,11.41
2023-04-14T02:27:56.372Z,11.35
2023-04-14T02:30:30.848Z,11.33
2023-04-14T02:33:04.529Z,11.34
2023-04-14T02:35:40.027Z,11.38
2023-04-14T02:38:29.741Z,11.32
2023-04-14T02:40:59.342Z,11.30
2023-04-14T02:43:32.556Z,11.25
2023-04-14T02:46:05.557Z,11.04
2023-04-14T02:48:36.033Z,11.32
2023-04-14T02:51:06.075Z,10.94
2023-04-14T02:53:34.584Z,11.21
2023-04-14T02:56:19.548Z,11.03
2023-04-14T02:58:49.861Z,11.12
2023-04-14T03:01:19.670Z,11.07
2023-04-14T03:03:50.253Z,11.15
2023-04-14T03:06:18.061Z,11.07
2023-04-14T03:08:47.568Z,11.24
2023-04-14T03:11:18.865Z,11.08
2023-04-14T03:13:48.811Z,11.19
2023-04-14T03:16:20.412Z,11.18
2023-04-14T03:18:52.261Z,11.21
2023-04-14T03:21:21.354Z,11.13
2023-04-14T03:23:53.010Z,10.97
2023-04-14T03:26:23.473Z,10.76
2023-04-14T03:28:53.508Z,10.84
2023-04-14T03:31:29.723Z,11.05
2023-04-14T03:34:00.022Z,11.02
2023-04-14T03:36:36.178Z,10.65
2023-04-14T03:39:06.001Z,10.95
2023-04-14T03:41:39.768Z,10.97
2023-04-14T03:44:15.795Z,11.02
2023-04-14T03:46:46.864Z,10.90
2023-04-14T03:49:17.335Z,11.09
2023-04-14T03:51:51.930Z,10.98
2023-04-14T03:54:23.080Z,11.06
2023-04-14T03:56:52.118Z,11.11
2023-04-14T03:59:21.836Z,11.21
2023-04-14T04:01:50.189Z,11.01
2023-04-14T04:04:18.821Z,11.20
2023-04-14T04:06:46.975Z,11.22
2023-04-14T04:09:15.920Z,10.94
2023-04-14T04:11:46.742Z,10.93
2023-04-14T04:14:16.556Z,10.88
2023-04-14T04:16:49.873Z,10.85
2023-04-14T04:19:23.084Z,10.86
2023-04-14T04:21:53.865Z,10.87
2023-04-14T04:24:23.300Z,10.84
2023-04-14T04:26:54.367Z,10.92
2023-04-14T04:29:23.717Z,10.74
2023-04-14T04:31:54.530Z,11.07
2023-04-14T04:34:25.228Z,11.00
2023-04-14T04:36:54.547Z,11.00
2023-04-14T04:39:21.876Z,10.71
2023-04-14T04:41:52.002Z,11.24
2023-04-14T04:44:20.411Z,11.22
2023-04-14T04:46:56.216Z,11.56
2023-04-14T04:49:26.956Z,11.54
2023-04-14T04:51:57.105Z,11.86
2023-04-14T04:54:24.650Z,12.14
2023-04-14T04:56:52.376Z,12.28
2023-04-14T04:59:19.580Z,12.51
2023-04-14T05:01:47.211Z,12.46
2023-04-14T05:04:14.646Z,11.98
2023-04-14T05:06:42.190Z,12.62
2023-04-14T05:09:09.438Z,12.91
2023-04-14T05:11:36.986Z,13.63
2023-04-14T05:14:04.400Z,13.91
2023-04-14T05:16:32.188Z,13.82
2023-04-14T05:18:59.873Z,14.57
2023-04-14T05:21:27.530Z,14.54
2023-04-14T05:23:54.785Z,15.22
2023-04-14T05:28:53.212Z,15.67
2023-04-14T05:31:20.784Z,15.55
2023-04-14T05:33:47.957Z,15.70
2023-04-14T05:36:15.741Z,15.50
2023-04-14T05:38:43.174Z,15.37
2023-04-14T05:41:12.069Z,15.52
2023-04-14T05:43:39.405Z,14.76
2023-04-14T05:46:07.118Z,14.59
2023-04-14T05:48:36.145Z,15.37
2023-04-14T05:51:03.759Z,15.73
2023-04-14T05:53:31.089Z,15.84
2023-04-14T05:55:59.092Z,16.44
2023-04-14T05:58:26.903Z,17.24
2023-04-14T06:00:54.473Z,18.61
2023-04-14T06:03:21.877Z,18.67
2023-04-14T06:05:50.891Z,21.01
2023-04-14T06:08:19.309Z,23.23
2023-04-14T06:10:47.028Z,21.92
2023-04-14T06:13:15.225Z,24.78
2023-04-14T06:15:42.747Z,25.07
2023-04-14T06:18:09.968Z,23.50
2023-04-14T06:20:37.580Z,20.42
2023-04-14T06:23:05.647Z,19.79
2023-04-14T06:25:34.685Z,18.79
2023-04-14T06:28:04.967Z,19.00
2023-04-14T06:30:32.544Z,19.06
2023-04-14T06:33:04.401Z,19.30
2023-04-14T06:35:33.986Z,18.47
2023-04-14T06:38:02.558Z,18.83
2023-04-14T06:40:30.183Z,17.79
2023-04-14T06:42:57.584Z,18.19
2023-04-14T06:45:25.340Z,20.08
2023-04-14T06:47:52.631Z,19.35
2023-04-14T06:50:20.168Z,20.84
2023-04-14T06:52:47.368Z,21.58
2023-04-14T06:55:15.649Z,20.50
2023-04-14T06:57:42.881Z,22.51
2023-04-14T07:00:11.519Z,22.10
2023-04-14T07:02:39.221Z,20.85
2023-04-14T07:05:07.749Z,20.31
2023-04-14T07:07:36.322Z,19.88
2023-04-14T07:10:04.272Z,19.80
2023-04-14T07:12:31.646Z,19.10
2023-04-14T07:14:59.322Z,19.56
2023-04-14T07:17:26.819Z,18.89
2023-04-14T07:19:54.414Z,21.31
2023-04-14T07:22:21.603Z,19.87
2023-04-14T07:24:49.277Z,18.06
2023-04-14T07:27:16.556Z,16.93
2023-04-14T07:29:44.202Z,16.41
2023-04-14T07:32:13.463Z,16.46
2023-04-14T07:34:43.921Z,16.58
2023-04-14T07:37:11.634Z,16.47
2023-04-14T07:39:39.812Z,19.40
2023-04-14T07:42:07.368Z,18.99
2023-04-14T07:44:35.165Z,19.15
2023-04-14T07:47:02.492Z,18.29
2023-04-14T07:49:30.048Z,17.42
2023-04-14T07:51:57.488Z,16.67
2023-04-14T07:54:25.297Z,16.35
2023-04-14T07:56:52.555Z,15.82
2023-04-14T07:59:20.518Z,16.43
2023-04-14T08:01:48.607Z,17.51
2023-04-14T08:04:16.353Z,17.51
2023-04-14T08:06:43.581Z,17.60
2023-04-14T08:09:12.265Z,17.52
2023-04-14T08:11:39.568Z,17.67
2023-04-14T08:14:07.064Z,15.54
2023-04-14T08:16:36.919Z,15.79
2023-04-14T08:19:05.175Z,14.92
2023-04-14T08:21:33.292Z,15.48
2023-04-14T08:24:01.144Z,15.84
2023-04-14T08:26:28.343Z,16.00
2023-04-14T08:28:56.224Z,15.85
2023-04-14T08:31:25.069Z,15.09
2023-04-14T08:33:53.037Z,14.69
2023-04-14T08:36:21.145Z,14.60
2023-04-14T08:38:48.760Z,15.63
2023-04-14T08:41:20.684Z,15.47
2023-04-14T08:43:48.288Z,16.44
2023-04-14T08:46:16.934Z,17.11
2023-04-14T08:48:47.847Z,16.70
2023-04-14T08:51:33.468Z,16.73
2023-04-14T08:54:04.716Z,17.39
2023-04-14T08:56:37.176Z,17.02
2023-04-14T08:59:11.680Z,16.01
2023-04-14T09:01:39.690Z,15.52
2023-04-14T09:04:08.809Z,15.20
2023-04-14T09:06:36.602Z,15.24
2023-04-14T09:09:08.838Z,15.23
2023-04-14T09:11:36.586Z,15.37
2023-04-14T09:14:04.947Z,15.94
2023-04-14T09:16:33.550Z,16.66
2023-04-14T09:19:06.924Z,16.65
2023-04-14T09:21:51.608Z,15.99
2023-04-14T09:24:31.789Z,17.36
2023-04-14T09:27:07.855Z,18.86
2023-04-14T09:29:37.442Z,18.24
2023-04-14T09:32:06.876Z,19.17
2023-04-14T09:34:34.456Z,19.28
2023-04-14T09:37:09.828Z,20.44
2023-04-14T09:39:49.645Z,20.74
2023-04-14T09:42:18.205Z,21.72
2023-04-14T09:44:59.290Z,23.16
2023-04-14T09:47:26.614Z,21.86
2023-04-14T09:49:59.597Z,20.48
2023-04-14T09:52:56.672Z,23.01
2023-04-14T09:55:24.332Z,21.11
2023-04-14T09:57:51.988Z,18.31
2023-04-14T10:00:22.320Z,17.31
2023-04-14T10:02:56.205Z,18.55
2023-04-14T10:05:33.987Z,17.66
2023-04-14T10:08:06.010Z,18.99
2023-04-14T10:10:34.186Z,18.41
2023-04-14T10:13:02.279Z,17.55
2023-04-14T10:15:29.910Z,16.62
2023-04-14T10:17:57.395Z,15.93
2023-04-14T10:20:25.377Z,15.78
2023-04-14T10:22:54.919Z,15.54
2023-04-14T10:25:24.147Z,14.91
2023-04-14T10:27:51.754Z,14.60
2023-04-14T10:30:19.374Z,14.48
2023-04-14T10:32:48.044Z,14.71
2023-04-14T10:35:17.768Z,15.86
2023-04-14T10:37:52.145Z,16.69
2023-04-14T10:40:21.529Z,17.75
2023-04-14T10:42:54.907Z,17.50
2023-04-14T10:45:23.009Z,18.20
2023-04-14T10:47:51.283Z,18.92
2023-04-14T10:50:24.182Z,18.28
2023-04-14T10:52:56.073Z,18.07
2023-04-14T10:55:25.730Z,18.23
2023-04-14T10:57:54.708Z,16.73
2023-04-14T11:00:27.827Z,17.01
2023-04-14T11:03:03.011Z,18.14
2023-04-14T11:05:34.205Z,16.51
2023-04-14T11:08:11.996Z,15.90
2023-04-14T11:10:40.058Z,15.81
2023-04-14T11:13:12.240Z,15.18
2023-04-14T11:16:03.913Z,14.85
2023-04-14T11:18:32.392Z,14.10
2023-04-14T11:21:06.920Z,14.73
2023-04-14T11:23:35.896Z,15.01
2023-04-14T11:26:06.330Z,15.21
2023-04-14T11:28:36.248Z,14.45
2023-04-14T11:31:06.806Z,14.49
2023-04-14T11:33:37.330Z,14.30
2023-04-14T11:36:07.373Z,13.51
2023-04-14T11:38:36.232Z,14.13
2023-04-14T11:41:04.130Z,14.14
2023-04-14T11:43:31.649Z,13.53
2023-04-14T11:46:03.350Z,13.23
2023-04-14T11:48:30.760Z,13.31
2023-04-14T11:51:03.708Z,13.89
2023-04-14T11:53:32.427Z,13.59
2023-04-14T11:56:00.965Z,13.64
2023-04-14T11:58:29.068Z,14.45
2023-04-14T12:00:59.472Z,14.38
2023-04-14T12:03:31.967Z,14.47
2023-04-14T12:06:01.782Z,14.35
2023-04-14T12:08:33.484Z,14.07
2023-04-14T12:11:13.669Z,14.51
2023-04-14T12:13:42.166Z,13.92
2023-04-14T12:16:14.965Z,13.86
2023-04-14T12:18:43.294Z,13.70
2023-04-14T12:21:15.820Z,13.18
2023-04-14T12:23:48.603Z,13.36
2023-04-14T12:26:16.944Z,13.75
2023-04-14T12:28:45.068Z,13.65
2023-04-14T12:31:12.710Z,13.37
2023-04-14T12:33:40.136Z,13.53
2023-04-14T12:36:11.801Z,13.46
2023-04-14T12:38:39.741Z,12.70
2023-04-14T12:41:07.250Z,13.22
2023-04-14T12:46:08.220Z,13.90
2023-04-14T12:48:48.982Z,13.49
2023-04-14T12:51:18.876Z,13.90
2023-04-14T12:53:49.401Z,14.20
2023-04-14T12:56:23.811Z,14.55
2023-04-14T12:58:51.648Z,14.14
2023-04-14T13:01:20.937Z,14.27
2023-04-14T13:03:55.582Z,14.34
2023-04-14T13:06:25.027Z,14.00
2023-04-14T13:08:53.592Z,13.92
2023-04-14T13:11:23.466Z,13.60
2023-04-14T13:13:52.450Z,13.79
2023-04-14T13:16:20.485Z,13.71
2023-04-14T13:18:48.797Z,13.52
2023-04-14T13:21:17.187Z,13.56
2023-04-14T13:23:44.598Z,14.05
2023-04-14T13:26:13.423Z,14.30
2023-04-14T13:28:40.745Z,13.95
2023-04-14T13:31:13.099Z,13.88
2023-04-14T13:33:40.498Z,13.88
2023-04-14T13:36:08.262Z,14.20
2023-04-14T13:38:35.730Z,14.60
2023-04-14T13:41:03.331Z,14.72
2023-04-14T13:43:30.750Z,13.92
2023-04-14T13:45:59.127Z,13.82
2023-04-14T13:48:27.452Z,13.43
2023-04-14T13:50:55.998Z,13.81
2023-04-14T13:53:23.367Z,13.71
2023-04-14T13:55:51.362Z,13.95
2023-04-14T13:58:18.617Z,14.05
2023-04-14T14:00:46.523Z,14.05
2023-04-14T14:03:13.884Z,14.42
2023-04-14T14:05:41.480Z,14.80
2023-04-14T14:08:08.805Z,14.93
2023-04-14T14:10:36.904Z,15.18
2023-04-14T14:13:04.922Z,15.12
2023-04-14T14:15:32.583Z,15.24
2023-04-14T14:17:59.984Z,15.16
2023-04-14T14:20:27.716Z,14.89
2023-04-14T14:22:54.995Z,14.59
2023-04-14T14:25:22.566Z,14.48
2023-04-14T14:27:51.963Z,14.05
2023-04-14T14:30:20.275Z,13.82
2023-04-14T14:32:47.698Z,14.25
2023-04-14T14:35:16.642Z,14.57
2023-04-14T14:37:45.799Z,14.30
2023-04-14T14:40:13.365Z,14.29
2023-04-14T14:42:40.562Z,14.57
2023-04-14T14:45:09.352Z,14.57
2023-04-14T14:47:37.333Z,14.17
2023-04-14T14:50:08.514Z,13.81
2023-04-14T14:52:36.510Z,13.85
2023-04-14T14:55:04.783Z,14.08
2023-04-14T14:57:32.337Z,14.15
2023-04-14T15:00:00.043Z,14.02
2023-04-14T15:02:27.617Z,13.91
2023-04-14T15:04:55.672Z,14.12
2023-04-14T15:07:23.059Z,14.22
2023-04-14T15:09:51.146Z,14.08
2023-04-14T15:12:19.359Z,14.04
2023-04-14T15:14:47.101Z,13.87
2023-04-14T15:17:14.626Z,13.72
2023-04-14T15:19:42.985Z,14.07
2023-04-14T15:22:10.612Z,13.89
2023-04-14T15:24:38.426Z,13.73
2023-04-14T15:27:06.220Z,13.69
2023-04-14T15:29:33.982Z,13.78
2023-04-14T15:32:01.662Z,13.64
2023-04-14T15:34:29.387Z,13.56
2023-04-14T15:36:56.975Z,13.79
2023-04-14T15:39:24.686Z,13.55
2023-04-14T15:41:52.187Z,14.04
2023-04-14T15:44:19.858Z,13.89
2023-04-14T15:46:47.165Z,13.94
2023-04-14T15:49:14.687Z,13.92
2023-04-14T15:51:42.483Z,13.81
2023-04-14T15:54:10.138Z,14.14
2023-04-14T15:56:37.380Z,14.33
2023-04-14T15:59:05.123Z,14.17
2023-04-14T16:01:32.436Z,13.89
2023-04-14T16:04:00.989Z,14.03
2023-04-14T16:06:28.675Z,13.89
2023-04-14T16:08:56.603Z,13.91
2023-04-14T16:11:24.212Z,13.60
2023-04-14T16:13:52.840Z,13.62
2023-04-14T16:16:20.194Z,13.37
2023-04-14T16:18:48.770Z,13.64
2023-04-14T16:21:16.467Z,13.22
2023-04-14T16:23:44.129Z,13.34
2023-04-14T16:26:12.910Z,13.21
2023-04-14T16:28:40.513Z,13.03
2023-04-14T16:31:08.340Z,13.40
2023-04-14T16:33:36.113Z,13.33
2023-04-14T16:36:07.802Z,13.09
2023-04-14T16:38:35.522Z,13.16
2023-04-14T16:41:03.468Z,13.11
2023-04-14T16:43:31.488Z,12.83
2023-04-14T16:46:03.239Z,12.43
2023-04-14T16:48:31.358Z,12.73
2023-04-14T16:51:06.832Z,12.31
2023-04-14T16:53:36.532Z,12.50
2023-04-14T16:56:05.650Z,12.05
2023-04-14T16:58:33.508Z,12.49
2023-04-14T17:01:01.390Z,12.55
2023-04-14T17:03:29.303Z,12.64
2023-04-14T17:05:56.772Z,12.54
2023-04-14T17:08:24.499Z,12.58
2023-04-14T17:10:51.829Z,12.64
2023-04-14T17:13:19.630Z,12.58
2023-04-14T17:15:55.681Z,12.01
2023-04-14T17:18:30.158Z,12.40
2023-04-14T17:20:57.372Z,12.23
2023-04-14T17:23:24.909Z,12.50
2023-04-14T17:25:53.299Z,12.32
2023-04-14T17:28:22.824Z,12.19
2023-04-14T17:30:51.125Z,12.36
2023-04-14T17:33:20.133Z,12.28
2023-04-14T17:35:47.686Z,12.37
2023-04-14T17:38:15.351Z,11.76
2023-04-14T17:40:42.767Z,12.23
2023-04-14T17:43:10.494Z,11.96
2023-04-14T17:45:40.176Z,11.96
2023-04-14T17:48:08.692Z,11.73
2023-04-14T17:50:36.162Z,11.82
2023-04-14T17:53:03.778Z,11.77
2023-04-14T17:55:31.338Z,11.74
2023-04-14T17:58:00.284Z,11.99
2023-04-14T18:00:29.357Z,11.57
2023-04-14T18:02:56.959Z,11.77
2023-04-14T18:05:24.293Z,11.98
2023-04-14T18:07:51.829Z,12.13
2023-04-14T18:10:19.438Z,12.06
2023-04-14T18:12:47.797Z,11.73
2023-04-14T18:15:17.827Z,11.47
2023-04-14T18:17:45.577Z,11.74
2023-04-14T18:20:13.774Z,11.81
2023-04-14T18:22:41.615Z,11.90
2023-04-14T18:25:09.761Z,11.75
2023-04-14T18:30:08.504Z,11.93
2023-04-14T18:32:36.520Z,11.74
2023-04-14T18:35:04.118Z,11.64
2023-04-14T18:37:31.758Z,11.84
2023-04-14T18:40:00.025Z,11.66
2023-04-14T18:42:30.244Z,11.80
2023-04-14T18:44:58.441Z,11.87
2023-04-14T18:47:26.301Z,11.77
2023-04-14T18:49:53.873Z,12.15
2023-04-14T18:52:22.222Z,11.77
2023-04-14T18:54:49.636Z,11.74
2023-04-14T18:57:17.938Z,11.82
2023-04-14T18:59:45.833Z,11.84
2023-04-14T19:02:13.961Z,12.08
2023-04-14T19:04:41.376Z,12.29
2023-04-14T19:07:09.128Z,11.98
2023-04-14T19:09:37.737Z,12.25
2023-04-14T19:12:06.836Z,12.26
2023-04-14T19:14:36.507Z,12.32
2023-04-14T19:17:04.742Z,12.42
2023-04-14T19:19:35.705Z,12.30
2023-04-14T19:22:03.840Z,12.53
2023-04-14T19:24:31.562Z,12.49
2023-04-14T19:26:59.318Z,12.28
2023-04-14T19:29:27.180Z,12.57
2023-04-14T19:31:54.794Z,12.35
2023-04-14T19:34:22.070Z,12.42
2023-04-14T19:36:49.658Z,12.15
2023-04-14T19:39:16.928Z,12.39
2023-04-14T19:41:44.541Z,12.19
2023-04-14T19:44:12.715Z,12.30
2023-04-14T19:46:42.309Z,12.27
2023-04-14T19:49:11.424Z,12.27
2023-04-14T19:51:39.119Z,12.16
2023-04-14T19:54:07.367Z,11.93
2023-04-14T19:56:35.134Z,11.90
2023-04-14T19:59:02.895Z,11.82
2023-04-14T20:01:31.518Z,11.80
2023-04-14T20:04:05.503Z,11.63
2023-04-14T20:06:40.349Z,11.85
2023-04-14T20:09:07.772Z,11.68
2023-04-14T20:11:35.366Z,11.78
2023-04-14T20:14:02.656Z,11.73
2023-04-14T20:16:30.676Z,11.80
2023-04-14T20:18:58.209Z,11.53
2023-04-14T20:21:25.938Z,11.47
2023-04-14T20:23:53.230Z,11.59
2023-04-14T20:26:21.589Z,11.67
2023-04-14T20:28:49.645Z,11.63
2023-04-14T20:31:17.272Z,11.64
2023-04-14T20:33:44.646Z,11.39
2023-04-14T20:36:12.593Z,11.31
2023-04-14T20:38:40.479Z,11.34
2023-04-14T20:41:08.029Z,11.18
2023-04-14T20:43:35.478Z,11.52
2023-04-14T20:46:04.034Z,11.57
2023-04-14T20:48:32.438Z,11.38
2023-04-14T20:51:01.453Z,10.99
2023-04-14T20:53:30.198Z,11.19
2023-04-14T20:55:57.873Z,11.22
2023-04-14T20:58:25.276Z,11.49
2023-04-14T21:00:52.975Z,10.98
2023-04-14T21:03:20.486Z,11.17
2023-04-14T21:05:48.272Z,11.15
2023-04-14T21:08:15.665Z,11.32
2023-04-14T21:11:14.893Z,11.22
2023-04-14T21:15:11.352Z,11.47
2023-04-14T21:16:18.429Z,11.17
2023-04-14T21:18:46.167Z,11.32
2023-04-14T21:21:14.023Z,11.31
2023-04-14T21:23:41.533Z,11.30
2023-04-14T21:26:09.234Z,10.92
2023-04-14T21:28:37.055Z,11.11
2023-04-14T21:31:04.963Z,11.02
2023-04-14T21:33:32.518Z,10.92
2023-04-14T21:36:02.834Z,11.11
2023-04-14T21:38:30.239Z,11.11
2023-04-14T21:40:57.945Z,11.06
2023-04-14T21:43:25.215Z,10.92
2023-04-14T21:45:53.699Z,10.91
2023-04-14T21:48:21.013Z,10.96
2023-04-14T21:50:49.361Z,10.80
2023-04-14T21:53:16.776Z,10.72
2023-04-14T21:55:44.404Z,10.90
2023-04-14T21:58:11.676Z,10.82
2023-04-14T22:00:40.991Z,10.76
2023-04-14T22:03:08.532Z,10.98
2023-04-14T22:05:36.374Z,10.88
2023-04-14T22:08:03.826Z,10.77
2023-04-14T22:10:34.220Z,10.89
2023-04-14T22:13:01.721Z,10.88
2023-04-14T22:15:29.582Z,10.64
2023-04-14T22:17:56.900Z,10.54
2023-04-14T22:20:26.561Z,10.85
2023-04-14T22:22:53.830Z,10.68
2023-04-14T22:25:21.461Z,10.77
2023-04-14T22:27:48.793Z,10.61
2023-04-14T22:30:16.584Z,10.68
2023-04-14T22:32:43.966Z,10.62
2023-04-14T22:35:11.623Z,10.70
2023-04-14T22:37:38.957Z,10.54
2023-04-14T22:40:07.528Z,10.77
2023-04-14T22:42:34.895Z,10.46
2023-04-14T22:45:02.467Z,10.58
2023-04-14T22:47:29.874Z,10.45
2023-04-14T22:49:57.456Z,10.51
2023-04-14T22:52:26.740Z,10.44
2023-04-14T22:54:54.534Z,10.56
2023-04-14T22:57:21.965Z,10.42
2023-04-14T22:59:49.646Z,10.49
2023-04-14T23:02:17.047Z,10.55
2023-04-14T23:04:45.012Z,10.31
2023-04-14T23:07:13.654Z,10.58
2023-04-14T23:09:41.359Z,10.28
2023-04-14T23:12:08.699Z,10.19
2023-04-14T23:14:36.752Z,10.39
2023-04-14T23:17:04.415Z,10.13
2023-04-14T23:19:33.776Z,10.21
2023-04-14T23:22:02.426Z,10.22
2023-04-14T23:24:30.028Z,10.30
2023-04-14T23:26:57.735Z,10.47
2023-04-14T23:29:25.408Z,10.32
2023-04-14T23:31:52.785Z,10.56
2023-04-14T23:34:20.661Z,10.40
2023-04-14T23:36:48.280Z,10.41
2023-04-14T23:39:15.884Z,10.10
2023-04-14T23:41:43.141Z,10.28
2023-04-14T23:44:10.881Z,10.04
2023-04-14T23:46:39.445Z,10.04
2023-04-14T23:49:24.395Z,10.09
2023-04-14T23:51:54.668Z,10.28
2023-04-14T23:54:22.204Z,10.22
2023-04-14T23:56:49.413Z,10.34
2023-04-14T23:59:17.173Z,10.11
